YUL weather

Montreal / Pierre Elliott Trudeau International Airport
Montréal, Quebec, Canada

Public forecast

Using degrees Celsius for public forecast. Weather courtesy of forecast.io.

METAR (pilot weather report)

Retrieved 2018/04/22 04:00 UTC (19 minutes ago):

CYUL 220400Z 34006KT 15SM SKC 05/M08 A3033 RMK SLP273

TAF (pilot weather forecast)

Retrieved 2018/04/22 03:42 UTC (37 minutes ago):

TAF CYUL 220238Z 2203/2224 30007KT P6SM SKC BECMG 2209/2211 26007KT RMK NXT FCST BY 220600Z